sensor_id;sensor_type;location;lat;lon;timestamp;pressure;altitude;pressure_sealevel;temperature;humidity
13934;BME280;7039;52.168;9.866;2023-02-10T00:01:09;102346.03;;;3.35;76.78
13934;BME280;7039;52.168;9.866;2023-02-10T00:03:37;102356.56;;;3.55;76.76
13934;BME280;7039;52.168;9.866;2023-02-10T00:06:05;102353.19;;;3.62;76.74
13934;BME280;7039;52.168;9.866;2023-02-10T00:08:38;102362.69;;;3.66;76.23
13934;BME280;7039;52.168;9.866;2023-02-10T00:11:07;102359.22;;;3.61;77.08
13934;BME280;7039;52.168;9.866;2023-02-10T00:13:35;102357.38;;;3.51;76.94
13934;BME280;7039;52.168;9.866;2023-02-10T00:16:04;102355.50;;;3.36;77.75
13934;BME280;7039;52.168;9.866;2023-02-10T00:18:33;102361.63;;;3.47;77.73
13934;BME280;7039;52.168;9.866;2023-02-10T00:21:09;102360.88;;;3.54;77.56
13934;BME280;7039;52.168;9.866;2023-02-10T00:23:36;102368.69;;;3.64;77.05
13934;BME280;7039;52.168;9.866;2023-02-10T00:26:03;102362.50;;;3.49;77.37
13934;BME280;7039;52.168;9.866;2023-02-10T00:28:30;102360.78;;;3.45;77.06
13934;BME280;7039;52.168;9.866;2023-02-10T00:30:56;102360.91;;;3.59;76.60
13934;BME280;7039;52.168;9.866;2023-02-10T00:33:23;102358.16;;;3.42;76.97
13934;BME280;7039;52.168;9.866;2023-02-10T00:35:52;102356.41;;;3.40;77.45
13934;BME280;7039;52.168;9.866;2023-02-10T00:38:20;102364.97;;;3.37;78.16
13934;BME280;7039;52.168;9.866;2023-02-10T00:40:47;102373.56;;;3.34;77.96
13934;BME280;7039;52.168;9.866;2023-02-10T00:43:13;102377.91;;;3.39;78.07
13934;BME280;7039;52.168;9.866;2023-02-10T00:45:40;102373.47;;;3.28;78.69
13934;BME280;7039;52.168;9.866;2023-02-10T00:48:06;102369.16;;;3.26;79.25
13934;BME280;7039;52.168;9.866;2023-02-10T00:50:33;102374.41;;;3.35;78.73
13934;BME280;7039;52.168;9.866;2023-02-10T00:52:59;102368.22;;;3.19;79.12
13934;BME280;7039;52.168;9.866;2023-02-10T00:55:27;102370.13;;;3.34;79.19
13934;BME280;7039;52.168;9.866;2023-02-10T00:57:54;102382.09;;;3.27;79.50
13934;BME280;7039;52.168;9.866;2023-02-10T01:00:20;102379.56;;;3.32;79.53
13934;BME280;7039;52.168;9.866;2023-02-10T01:02:47;102385.69;;;3.43;79.56
13934;BME280;7039;52.168;9.866;2023-02-10T01:05:13;102393.34;;;3.34;79.33
13934;BME280;7039;52.168;9.866;2023-02-10T01:07:40;102398.72;;;3.57;78.98
13934;BME280;7039;52.168;9.866;2023-02-10T01:10:07;102395.16;;;3.47;78.82
13934;BME280;7039;52.168;9.866;2023-02-10T01:12:34;102399.63;;;3.62;79.00
13934;BME280;7039;52.168;9.866;2023-02-10T01:15:01;102397.84;;;3.58;78.53
13934;BME280;7039;52.168;9.866;2023-02-10T01:17:27;102396.84;;;3.41;79.46
13934;BME280;7039;52.168;9.866;2023-02-10T01:19:54;102398.44;;;3.29;79.74
13934;BME280;7039;52.168;9.866;2023-02-10T01:22:21;102398.47;;;3.32;79.92
13934;BME280;7039;52.168;9.866;2023-02-10T01:24:48;102395.16;;;3.47;79.48
13934;BME280;7039;52.168;9.866;2023-02-10T01:27:14;102408.03;;;3.44;79.89
13934;BME280;7039;52.168;9.866;2023-02-10T01:29:42;102410.66;;;3.49;79.95
13934;BME280;7039;52.168;9.866;2023-02-10T01:32:09;102404.53;;;3.38;80.30
13934;BME280;7039;52.168;9.866;2023-02-10T01:34:36;102409.72;;;3.42;80.49
13934;BME280;7039;52.168;9.866;2023-02-10T01:37:02;102400.94;;;3.23;81.50
13934;BME280;7039;52.168;9.866;2023-02-10T01:39:29;102415.78;;;3.44;81.46
13934;BME280;7039;52.168;9.866;2023-02-10T01:41:56;102418.28;;;3.37;81.21
13934;BME280;7039;52.168;9.866;2023-02-10T01:47:27;102411.38;;;3.35;81.95
13934;BME280;7039;52.168;9.866;2023-02-10T01:49:54;102407.88;;;3.27;81.79
13934;BME280;7039;52.168;9.866;2023-02-10T01:52:22;102413.84;;;3.23;82.22
13934;BME280;7039;52.168;9.866;2023-02-10T01:54:54;102413.06;;;3.32;82.21
13934;BME280;7039;52.168;9.866;2023-02-10T01:57:25;102401.97;;;3.39;81.45
13934;BME280;7039;52.168;9.866;2023-02-10T01:59:52;102412.31;;;3.42;81.72
13934;BME280;7039;52.168;9.866;2023-02-10T02:02:19;102406.16;;;3.31;81.72
13934;BME280;7039;52.168;9.866;2023-02-10T02:04:52;102407.28;;;3.53;81.37
13934;BME280;7039;52.168;9.866;2023-02-10T02:07:23;102415.75;;;3.41;82.17
13934;BME280;7039;52.168;9.866;2023-02-10T02:09:52;102411.50;;;3.46;81.82
13934;BME280;7039;52.168;9.866;2023-02-10T02:12:24;102402.84;;;3.43;81.83
13934;BME280;7039;52.168;9.866;2023-02-10T02:14:56;102404.56;;;3.42;81.91
13934;BME280;7039;52.168;9.866;2023-02-10T02:17:28;102401.94;;;3.38;82.09
13934;BME280;7039;52.168;9.866;2023-02-10T02:20:27;102415.84;;;3.50;82.07
13934;BME280;7039;52.168;9.866;2023-02-10T02:23:14;102412.50;;;3.61;81.12
13934;BME280;7039;52.168;9.866;2023-02-10T02:29:17;102424.41;;;3.49;81.95
13934;BME280;7039;52.168;9.866;2023-02-10T02:32:00;102430.66;;;3.68;81.06
13934;BME280;7039;52.168;9.866;2023-02-10T02:34:35;102431.38;;;3.55;81.57
13934;BME280;7039;52.168;9.866;2023-02-10T02:37:07;102423.53;;;3.47;81.94
13934;BME280;7039;52.168;9.866;2023-02-10T02:39:36;102420.75;;;3.29;82.53
13934;BME280;7039;52.168;9.866;2023-02-10T02:42:27;102424.22;;;3.31;83.04
13934;BME280;7039;52.168;9.866;2023-02-10T02:44:56;102424.00;;;3.12;83.23
13934;BME280;7039;52.168;9.866;2023-02-10T02:47:42;102414.53;;;3.10;83.62
13934;BME280;7039;52.168;9.866;2023-02-10T02:50:20;102413.59;;;3.06;84.16
13934;BME280;7039;52.168;9.866;2023-02-10T02:53:09;102424.91;;;3.18;83.59
13934;BME280;7039;52.168;9.866;2023-02-10T02:55:46;102420.59;;;3.13;83.72
13934;BME280;7039;52.168;9.866;2023-02-10T02:58:18;102416.38;;;3.22;82.89
13934;BME280;7039;52.168;9.866;2023-02-10T03:00:47;102410.19;;;3.07;83.88
13934;BME280;7039;52.168;9.866;2023-02-10T03:03:16;102417.03;;;3.04;83.44
13934;BME280;7039;52.168;9.866;2023-02-10T03:05:43;102416.38;;;3.22;83.29
13934;BME280;7039;52.168;9.866;2023-02-10T03:08:10;102419.91;;;3.28;82.75
13934;BME280;7039;52.168;9.866;2023-02-10T03:10:36;102412.16;;;3.28;82.78
13934;BME280;7039;52.168;9.866;2023-02-10T03:13:03;102415.69;;;3.35;82.29
13934;BME280;7039;52.168;9.866;2023-02-10T03:15:29;102418.19;;;3.27;82.59
13934;BME280;7039;52.168;9.866;2023-02-10T03:17:56;102402.34;;;2.97;83.52
13934;BME280;7039;52.168;9.866;2023-02-10T03:20:24;102407.72;;;3.15;83.31
13934;BME280;7039;52.168;9.866;2023-02-10T03:22:51;102405.75;;;2.97;83.59
13934;BME280;7039;52.168;9.866;2023-02-10T03:25:26;102402.41;;;3.04;83.50
13934;BME280;7039;52.168;9.866;2023-02-10T03:27:59;102408.41;;;3.02;83.99
13934;BME280;7039;52.168;9.866;2023-02-10T03:30:30;102404.13;;;3.04;84.12
13934;BME280;7039;52.168;9.866;2023-02-10T03:32:57;102409.25;;;3.01;84.17
13934;BME280;7039;52.168;9.866;2023-02-10T03:35:25;102412.69;;;3.01;84.31
13934;BME280;7039;52.168;9.866;2023-02-10T03:37:55;102412.03;;;3.18;83.50
13934;BME280;7039;52.168;9.866;2023-02-10T03:40:21;102414.59;;;3.18;83.13
13934;BME280;7039;52.168;9.866;2023-02-10T03:42:48;102410.31;;;3.17;83.46
13934;BME280;7039;52.168;9.866;2023-02-10T09:46:00;102597.50;;;4.44;85.35
13934;BME280;7039;52.168;9.866;2023-02-10T09:48:33;102616.66;;;4.65;84.89
13934;BME280;7039;52.168;9.866;2023-02-10T09:51:08;102612.28;;;4.60;84.94
13934;BME280;7039;52.168;9.866;2023-02-10T09:53:40;102611.41;;;4.57;84.30
13934;BME280;7039;52.168;9.866;2023-02-10T09:56:11;102616.72;;;4.72;84.12
13934;BME280;7039;52.168;9.866;2023-02-10T09:58:41;102622.84;;;4.84;84.40
13934;BME280;7039;52.168;9.866;2023-02-10T10:01:16;102632.34;;;4.81;84.18
13934;BME280;7039;52.168;9.866;2023-02-10T10:03:46;102625.38;;;4.79;84.22
13934;BME280;7039;52.168;9.866;2023-02-10T10:06:21;102610.81;;;4.87;83.73
13934;BME280;7039;52.168;9.866;2023-02-10T10:08:57;102621.38;;;5.15;83.37
13934;BME280;7039;52.168;9.866;2023-02-10T10:11:31;102617.91;;;5.14;83.41
13934;BME280;7039;52.168;9.866;2023-02-10T10:13:59;102613.47;;;4.99;83.28
13934;BME280;7039;52.168;9.866;2023-02-10T10:16:44;102615.25;;;5.03;83.77
13934;BME280;7039;52.168;9.866;2023-02-10T10:19:26;102602.28;;;4.97;83.58
13934;BME280;7039;52.168;9.866;2023-02-10T10:22:05;102615.13;;;4.88;83.93
13934;BME280;7039;52.168;9.866;2023-02-10T10:24:48;102609.75;;;4.65;84.70
13934;BME280;7039;52.168;9.866;2023-02-10T10:27:24;102610.66;;;4.66;84.52
13934;BME280;7039;52.168;9.866;2023-02-10T10:29:55;102596.56;;;4.36;85.27
13934;BME280;7039;52.168;9.866;2023-02-10T10:32:35;102605.44;;;4.63;84.79
13934;BME280;7039;52.168;9.866;2023-02-10T10:35:05;102606.25;;;4.57;84.91
13934;BME280;7039;52.168;9.866;2023-02-10T10:37:37;102603.66;;;4.57;84.64
13934;BME280;7039;52.168;9.866;2023-02-10T10:40:06;102607.47;;;5.00;83.99
13934;BME280;7039;52.168;9.866;2023-02-10T10:42:40;102606.56;;;4.94;83.36
13934;BME280;7039;52.168;9.866;2023-02-10T10:45:12;102610.25;;;5.31;82.46
13934;BME280;7039;52.168;9.866;2023-02-10T10:47:45;102611.06;;;5.24;82.52
13934;BME280;7039;52.168;9.866;2023-02-10T10:50:14;102610.91;;;5.01;82.17
13934;BME280;7039;52.168;9.866;2023-02-10T10:52:42;102611.16;;;5.38;82.25
13934;BME280;7039;52.168;9.866;2023-02-10T10:55:13;102607.88;;;5.68;81.50
13934;BME280;7039;52.168;9.866;2023-02-10T10:57:41;102582.66;;;5.30;81.48
13934;BME280;7039;52.168;9.866;2023-02-10T11:00:17;102590.53;;;5.49;82.08
13934;BME280;7039;52.168;9.866;2023-02-10T11:02:56;102592.25;;;5.51;81.04
13934;BME280;7039;52.168;9.866;2023-02-10T11:05:27;102584.59;;;5.74;81.33
13934;BME280;7039;52.168;9.866;2023-02-10T11:07:55;102577.75;;;5.84;80.84
13934;BME280;7039;52.168;9.866;2023-02-10T11:10:25;102580.22;;;5.58;80.50
13934;BME280;7039;52.168;9.866;2023-02-10T11:12:53;102576.09;;;5.98;79.94
13934;BME280;7039;52.168;9.866;2023-02-10T11:15:30;102573.53;;;6.07;79.42
13934;BME280;7039;52.168;9.866;2023-02-10T11:17:59;102584.78;;;6.22;79.05
13934;BME280;7039;52.168;9.866;2023-02-10T11:20:29;102584.75;;;6.02;78.62
13934;BME280;7039;52.168;9.866;2023-02-10T11:22:57;102576.16;;;6.35;77.91
13934;BME280;7039;52.168;9.866;2023-02-10T11:25:28;102571.81;;;6.22;77.41
13934;BME280;7039;52.168;9.866;2023-02-10T11:27:56;102562.34;;;6.28;78.15
13934;BME280;7039;52.168;9.866;2023-02-10T11:30:26;102560.63;;;6.83;76.55
13934;BME280;7039;52.168;9.866;2023-02-10T11:32:53;102559.78;;;6.48;77.61
13934;BME280;7039;52.168;9.866;2023-02-10T11:35:22;102558.88;;;6.26;77.82
13934;BME280;7039;52.168;9.866;2023-02-10T11:37:52;102566.63;;;6.10;78.45
13934;BME280;7039;52.168;9.866;2023-02-10T11:40:21;102558.75;;;5.85;79.37
13934;BME280;7039;52.168;9.866;2023-02-10T11:42:50;102557.00;;;5.75;79.20
13934;BME280;7039;52.168;9.866;2023-02-10T11:45:20;102546.72;;;5.96;78.75
13934;BME280;7039;52.168;9.866;2023-02-10T11:47:47;102534.56;;;5.75;79.03
13934;BME280;7039;52.168;9.866;2023-02-10T11:50:30;102551.09;;;6.22;78.61
13934;BME280;7039;52.168;9.866;2023-02-10T11:52:57;102549.38;;;6.18;77.89
13934;BME280;7039;52.168;9.866;2023-02-10T11:55:30;102541.59;;;6.25;77.16
13934;BME280;7039;52.168;9.866;2023-02-10T11:58:07;102549.41;;;6.67;78.04
13934;BME280;7039;52.168;9.866;2023-02-10T12:01:01;102545.06;;;6.58;77.08
13934;BME280;7039;52.168;9.866;2023-02-10T12:03:41;102547.69;;;6.71;76.41
13934;BME280;7039;52.168;9.866;2023-02-10T12:06:18;102532.13;;;6.29;76.42
13934;BME280;7039;52.168;9.866;2023-02-10T12:08:52;102539.03;;;6.32;77.00
13934;BME280;7039;52.168;9.866;2023-02-10T12:11:28;102527.75;;;6.08;77.84
13934;BME280;7039;52.168;9.866;2023-02-10T12:14:02;102530.38;;;6.40;77.23
13934;BME280;7039;52.168;9.866;2023-02-10T12:16:37;102534.72;;;6.34;76.80
13934;BME280;7039;52.168;9.866;2023-02-10T12:19:12;102541.56;;;6.09;76.88
13934;BME280;7039;52.168;9.866;2023-02-10T12:22:01;102545.03;;;6.12;77.56
13934;BME280;7039;52.168;9.866;2023-02-10T12:24:57;102539.88;;;6.54;75.69
13934;BME280;7039;52.168;9.866;2023-02-10T12:27:37;102545.91;;;6.93;74.93
13934;BME280;7039;52.168;9.866;2023-02-10T12:30:17;102545.03;;;6.97;75.24
13934;BME280;7039;52.168;9.866;2023-02-10T12:32:51;102544.16;;;7.07;74.36
13934;BME280;7039;52.168;9.866;2023-02-10T12:35:27;102524.31;;;6.86;74.60
13934;BME280;7039;52.168;9.866;2023-02-10T12:38:08;102519.16;;;6.66;74.86
13934;BME280;7039;52.168;9.866;2023-02-10T12:40:49;102514.81;;;6.77;74.73
13934;BME280;7039;52.168;9.866;2023-02-10T12:43:29;102518.25;;;6.85;75.08
13934;BME280;7039;52.168;9.866;2023-02-10T12:46:06;102521.72;;;6.84;74.84
13934;BME280;7039;52.168;9.866;2023-02-10T12:48:44;102517.38;;;6.99;74.07
13934;BME280;7039;52.168;9.866;2023-02-10T12:51:30;102519.88;;;7.34;73.35
13934;BME280;7039;52.168;9.866;2023-02-10T12:54:03;102520.78;;;7.21;73.51
13934;BME280;7039;52.168;9.866;2023-02-10T12:56:39;102507.81;;;7.15;73.04
13934;BME280;7039;52.168;9.866;2023-02-10T12:59:13;102519.97;;;7.05;73.24
13934;BME280;7039;52.168;9.866;2023-02-10T13:01:42;102500.97;;;6.94;73.42
13934;BME280;7039;52.168;9.866;2023-02-10T13:04:15;102501.69;;;7.36;72.76
13934;BME280;7039;52.168;9.866;2023-02-10T13:06:46;102509.38;;;7.56;72.18
13934;BME280;7039;52.168;9.866;2023-02-10T13:09:23;102497.38;;;7.36;71.49
13934;BME280;7039;52.168;9.866;2023-02-10T13:12:03;102491.22;;;7.51;71.49
13934;BME280;7039;52.168;9.866;2023-02-10T13:14:32;102482.69;;;7.24;71.27
13934;BME280;7039;52.168;9.866;2023-02-10T13:17:00;102477.50;;;7.24;70.85
13934;BME280;7039;52.168;9.866;2023-02-10T13:19:36;102474.13;;;7.07;70.97
13934;BME280;7039;52.168;9.866;2023-02-10T13:22:08;102478.47;;;6.97;72.38
13934;BME280;7039;52.168;9.866;2023-02-10T13:24:42;102475.03;;;6.86;72.79
13934;BME280;7039;52.168;9.866;2023-02-10T13:27:19;102468.16;;;6.68;72.82
13934;BME280;7039;52.168;9.866;2023-02-10T13:29:59;102467.25;;;6.83;72.60
13934;BME280;7039;52.168;9.866;2023-02-10T13:32:35;102467.97;;;7.29;71.64
13934;BME280;7039;52.168;9.866;2023-02-10T13:35:07;102453.25;;;7.30;71.77
13934;BME280;7039;52.168;9.866;2023-02-10T13:37:41;102465.31;;;7.45;71.16
13934;BME280;7039;52.168;9.866;2023-02-10T13:40:17;102465.22;;;7.62;71.19
13934;BME280;7039;52.168;9.866;2023-02-10T13:42:50;102455.72;;;7.58;70.62
13934;BME280;7039;52.168;9.866;2023-02-10T13:45:19;102445.53;;;7.22;70.83
13934;BME280;7039;52.168;9.866;2023-02-10T13:47:50;102443.81;;;7.10;71.39
13934;BME280;7039;52.168;9.866;2023-02-10T13:50:23;102446.34;;;7.32;71.70
13934;BME280;7039;52.168;9.866;2023-02-10T13:52:52;102439.38;;;7.36;71.05
13934;BME280;7039;52.168;9.866;2023-02-10T13:55:42;102436.81;;;7.32;71.08
13934;BME280;7039;52.168;9.866;2023-02-10T13:58:33;102434.22;;;7.29;71.09
13934;BME280;7039;52.168;9.866;2023-02-10T14:01:01;102428.19;;;7.27;70.13
13934;BME280;7039;52.168;9.866;2023-02-10T14:03:28;102422.22;;;7.13;70.07
13934;BME280;7039;52.168;9.866;2023-02-10T14:05:58;102423.81;;;7.32;70.23
13934;BME280;7039;52.168;9.866;2023-02-10T14:08:32;102415.38;;;6.84;69.93
13934;BME280;7039;52.168;9.866;2023-02-10T14:11:03;102412.78;;;6.86;69.43
13934;BME280;7039;52.168;9.866;2023-02-10T14:13:31;102423.16;;;6.77;70.09
13934;BME280;7039;52.168;9.866;2023-02-10T14:16:01;102420.50;;;7.09;69.21
13934;BME280;7039;52.168;9.866;2023-02-10T14:18:29;102423.00;;;7.26;68.47
13934;BME280;7039;52.168;9.866;2023-02-10T14:20:58;102410.94;;;7.16;68.31
13934;BME280;7039;52.168;9.866;2023-02-10T14:23:27;102413.63;;;6.83;68.53
13934;BME280;7039;52.168;9.866;2023-02-10T14:25:56;102413.56;;;7.11;68.26
13934;BME280;7039;52.168;9.866;2023-02-10T14:28:28;102412.72;;;6.97;68.22
13934;BME280;7039;52.168;9.866;2023-02-10T14:30:57;102404.97;;;6.95;68.22
13934;BME280;7039;52.168;9.866;2023-02-10T14:33:27;102398.13;;;6.69;68.47
13934;BME280;7039;52.168;9.866;2023-02-10T14:35:56;102403.25;;;6.94;68.56
13934;BME280;7039;52.168;9.866;2023-02-10T14:38:25;102398.09;;;6.82;68.64
13934;BME280;7039;52.168;9.866;2023-02-10T14:40:53;102403.25;;;6.88;68.06
13934;BME280;7039;52.168;9.866;2023-02-10T14:43:27;102405.81;;;7.00;67.70
13934;BME280;7039;52.168;9.866;2023-02-10T14:45:56;102394.59;;;6.92;68.16
13934;BME280;7039;52.168;9.866;2023-02-10T14:48:24;102402.38;;;6.95;67.47
13934;BME280;7039;52.168;9.866;2023-02-10T14:53:41;102398.66;;;7.42;66.11
13934;BME280;7039;52.168;9.866;2023-02-10T14:56:16;102397.66;;;7.66;65.45
13934;BME280;7039;52.168;9.866;2023-02-10T14:58:45;102400.81;;;8.05;64.25
13934;BME280;7039;52.168;9.866;2023-02-10T15:01:19;102397.00;;;8.46;63.60
13934;BME280;7039;52.168;9.866;2023-02-10T15:03:49;102394.50;;;8.34;62.91
13934;BME280;7039;52.168;9.866;2023-02-10T15:06:17;102382.09;;;8.65;62.20
13934;BME280;7039;52.168;9.866;2023-02-10T15:08:46;102373.50;;;8.57;61.52
13934;BME280;7039;52.168;9.866;2023-02-10T15:11:18;102376.00;;;8.65;62.06
13934;BME280;7039;52.168;9.866;2023-02-10T15:14:11;102365.75;;;8.51;62.02
13934;BME280;7039;52.168;9.866;2023-02-10T15:16:41;102360.53;;;8.52;61.83
13934;BME280;7039;52.168;9.866;2023-02-10T15:19:13;102365.25;;;8.12;62.55
13934;BME280;7039;52.168;9.866;2023-02-10T15:21:40;102363.97;;;7.56;64.32
13934;BME280;7039;52.168;9.866;2023-02-10T15:24:18;102364.00;;;7.54;64.77
13934;BME280;7039;52.168;9.866;2023-02-10T15:26:45;102359.81;;;7.28;65.31
13934;BME280;7039;52.168;9.866;2023-02-10T15:29:15;102351.19;;;7.29;64.88
13934;BME280;7039;52.168;9.866;2023-02-10T15:31:41;102355.47;;;7.30;64.92
13934;BME280;7039;52.168;9.866;2023-02-10T15:34:16;102353.47;;;7.69;63.61
13934;BME280;7039;52.168;9.866;2023-02-10T15:36:47;102347.44;;;7.69;62.68
13934;BME280;7039;52.168;9.866;2023-02-10T15:39:21;102349.06;;;7.81;61.70
13934;BME280;7039;52.168;9.866;2023-02-10T15:41:59;102346.41;;;7.88;61.13
13934;BME280;7039;52.168;9.866;2023-02-10T15:44:31;102364.91;;;7.42;61.99
